createdAt,value
2016-11-16T00:00:10.974Z,1013.89
2016-11-16T00:01:10.993Z,1013.92
2016-11-16T00:02:11.012Z,1013.89
2016-11-16T00:03:11.081Z,1013.92
2016-11-16T00:04:11.050Z,1013.95
2016-11-16T00:05:11.071Z,1013.88
2016-11-16T00:06:11.090Z,1013.93
2016-11-16T00:07:11.110Z,1013.89
2016-11-16T00:08:11.128Z,1013.9
2016-11-16T00:09:11.149Z,1013.92
2016-11-16T00:10:11.169Z,1013.91
2016-11-16T00:11:11.187Z,1013.88
2016-11-16T00:12:11.207Z,1013.86
2016-11-16T00:13:11.227Z,1013.86
2016-11-16T00:14:11.245Z,1013.89
2016-11-16T00:15:11.265Z,1013.84
2016-11-16T00:17:11.306Z,1013.83
2016-11-16T00:18:11.324Z,1013.86
2016-11-16T00:19:11.342Z,1013.87
2016-11-16T00:20:11.751Z,1013.9
2016-11-16T00:21:11.384Z,1013.85
2016-11-16T00:22:11.404Z,1013.86
2016-11-16T00:23:11.423Z,1013.85
2016-11-16T00:24:11.441Z,1013.81
2016-11-16T00:25:11.460Z,1013.91
2016-11-16T00:26:11.479Z,1013.87
2016-11-16T00:27:11.499Z,1013.89
2016-11-16T00:28:11.519Z,1013.91
2016-11-16T00:29:11.540Z,1013.92
2016-11-16T00:30:11.557Z,1013.93
2016-11-16T00:31:11.578Z,1013.9
2016-11-16T00:33:11.618Z,1013.87
2016-11-16T00:34:11.636Z,1013.83
2016-11-16T00:35:11.657Z,1013.83
2016-11-16T00:36:11.676Z,1013.84
2016-11-16T00:37:11.695Z,1013.81
2016-11-16T00:38:11.715Z,1013.83
2016-11-16T00:39:11.735Z,1013.88
2016-11-16T00:40:11.755Z,1013.84
2016-11-16T00:41:11.774Z,1013.84
2016-11-16T00:42:11.794Z,1013.82
2016-11-16T00:43:11.813Z,1013.82
2016-11-16T00:44:11.834Z,1013.86
2016-11-16T00:45:11.852Z,1013.84
2016-11-16T00:46:11.875Z,1013.82
2016-11-16T00:47:11.893Z,1013.75
2016-11-16T00:49:11.930Z,1013.74
2016-11-16T00:50:11.952Z,1013.72
2016-11-16T00:51:11.970Z,1013.74
2016-11-16T00:52:11.991Z,1013.75
2016-11-16T00:53:12.010Z,1013.78
2016-11-16T00:54:12.030Z,1013.8
2016-11-16T00:55:12.051Z,1013.8
2016-11-16T00:56:12.069Z,1013.81
2016-11-16T00:57:12.089Z,1013.83
2016-11-16T00:58:12.109Z,1013.81
2016-11-16T00:59:12.128Z,1013.8
2016-11-16T01:00:12.149Z,1013.77
2016-11-16T01:01:12.167Z,1013.75
2016-11-16T01:02:12.188Z,1013.74
2016-11-16T01:03:12.206Z,1013.75
2016-11-16T01:05:12.246Z,1013.76
2016-11-16T01:06:12.267Z,1013.79
2016-11-16T01:07:12.286Z,1013.79
2016-11-16T01:08:12.308Z,1013.8
2016-11-16T01:09:12.325Z,1013.8
2016-11-16T01:10:12.344Z,1013.82
2016-11-16T01:11:12.364Z,1013.81
2016-11-16T01:12:12.384Z,1013.82
2016-11-16T01:13:12.404Z,1013.77
2016-11-16T01:14:12.423Z,1013.75
2016-11-16T01:15:12.444Z,1013.77
2016-11-16T01:16:12.463Z,1013.8
2016-11-16T01:17:12.484Z,1013.75
2016-11-16T01:18:12.503Z,1013.77
2016-11-16T01:20:12.543Z,1013.74
2016-11-16T01:21:12.563Z,1013.75
2016-11-16T01:22:12.582Z,1013.79
2016-11-16T01:23:12.603Z,1013.77
2016-11-16T01:24:12.623Z,1013.7
2016-11-16T01:25:12.644Z,1013.7
2016-11-16T01:26:12.662Z,1013.7
2016-11-16T01:27:12.682Z,1013.65
2016-11-16T01:28:12.700Z,1013.66
2016-11-16T01:29:12.722Z,1013.68
2016-11-16T01:30:12.742Z,1013.68
2016-11-16T01:31:12.761Z,1013.68
2016-11-16T01:32:12.781Z,1013.64
2016-11-16T01:33:12.801Z,1013.64
2016-11-16T01:34:12.821Z,1013.62
2016-11-16T01:35:12.841Z,1013.61
2016-11-16T01:36:12.859Z,1013.63
2016-11-16T01:37:12.880Z,1013.65
2016-11-16T01:38:12.899Z,1013.61
2016-11-16T01:39:12.919Z,1013.62
2016-11-16T01:40:12.938Z,1013.65
2016-11-16T01:41:12.958Z,1013.61
2016-11-16T01:42:12.981Z,1013.67
2016-11-16T01:43:13.000Z,1013.62
2016-11-16T01:44:13.018Z,1013.64
2016-11-16T01:45:13.038Z,1013.65
2016-11-16T01:46:13.059Z,1013.6
2016-11-16T01:47:13.078Z,1013.59
2016-11-16T01:48:13.097Z,1013.56
2016-11-16T01:49:13.118Z,1013.56
2016-11-16T01:50:13.139Z,1013.51
2016-11-16T01:52:13.177Z,1013.56
2016-11-16T01:53:13.197Z,1013.55
2016-11-16T01:54:13.218Z,1013.54
2016-11-16T01:55:13.238Z,1013.57
2016-11-16T01:56:13.260Z,1013.55
2016-11-16T01:57:13.276Z,1013.56
2016-11-16T01:58:13.296Z,1013.58
2016-11-16T01:59:13.316Z,1013.58
2016-11-16T02:00:13.336Z,1013.55
2016-11-16T02:01:13.355Z,1013.56
2016-11-16T02:02:13.376Z,1013.55
2016-11-16T02:03:13.397Z,1013.52
2016-11-16T02:04:13.416Z,1013.54
2016-11-16T02:05:13.436Z,1013.46
2016-11-16T02:06:13.456Z,1013.48
2016-11-16T02:08:13.496Z,1013.45
2016-11-16T02:09:13.515Z,1013.45
2016-11-16T02:10:13.536Z,1013.5
2016-11-16T02:11:13.556Z,1013.47
2016-11-16T02:12:13.584Z,1013.52
2016-11-16T02:13:13.594Z,1013.52
2016-11-16T02:14:13.616Z,1013.56
2016-11-16T02:15:13.635Z,1013.55
2016-11-16T02:16:13.655Z,1013.52
2016-11-16T02:17:13.675Z,1013.47
2016-11-16T02:18:13.694Z,1013.44
2016-11-16T02:19:13.714Z,1013.48
2016-11-16T02:20:13.734Z,1013.48
2016-11-16T02:21:13.755Z,1013.45
2016-11-16T02:22:13.775Z,1013.45
2016-11-16T02:24:13.813Z,1013.49
2016-11-16T02:25:13.833Z,1013.44
2016-11-16T02:26:13.853Z,1013.46
2016-11-16T02:27:13.872Z,1013.41
2016-11-16T02:28:13.892Z,1013.36
2016-11-16T02:29:13.914Z,1013.42
2016-11-16T02:30:13.935Z,1013.42
2016-11-16T02:31:13.953Z,1013.37
2016-11-16T02:32:13.973Z,1013.38
2016-11-16T02:33:13.993Z,1013.39
2016-11-16T02:34:14.011Z,1013.35
2016-11-16T02:35:14.032Z,1013.37
2016-11-16T02:36:14.051Z,1013.38
2016-11-16T02:37:14.071Z,1013.4
2016-11-16T02:38:14.090Z,1013.4
2016-11-16T02:40:14.130Z,1013.45
2016-11-16T02:41:14.150Z,1013.38
2016-11-16T02:42:14.171Z,1013.37
2016-11-16T02:43:14.191Z,1013.34
2016-11-16T02:44:14.212Z,1013.34
2016-11-16T02:45:14.231Z,1013.31
2016-11-16T02:46:14.251Z,1013.33
2016-11-16T02:47:14.269Z,1013.31
2016-11-16T02:48:14.289Z,1013.32
2016-11-16T02:49:14.308Z,1013.31
2016-11-16T02:50:14.329Z,1013.28
2016-11-16T02:51:14.349Z,1013.28
2016-11-16T02:52:14.370Z,1013.28
2016-11-16T02:53:14.389Z,1013.32
2016-11-16T02:55:14.429Z,1013.27
2016-11-16T02:56:14.449Z,1013.26
2016-11-16T02:57:14.468Z,1013.22
2016-11-16T02:58:14.488Z,1013.23
2016-11-16T02:59:14.512Z,1013.16
2016-11-16T03:00:14.528Z,1013.13
2016-11-16T03:01:14.547Z,1013.13
2016-11-16T03:02:14.568Z,1013.16
2016-11-16T03:03:14.586Z,1013.21
2016-11-16T03:04:14.606Z,1013.2
2016-11-16T03:05:14.627Z,1013.19
2016-11-16T03:06:14.646Z,1013.15
2016-11-16T03:07:14.665Z,1013.14
2016-11-16T03:08:14.686Z,1013.12
2016-11-16T03:09:14.704Z,1013.09
2016-11-16T03:10:14.725Z,1013.13
2016-11-16T03:11:14.743Z,1013.17
2016-11-16T03:12:14.763Z,1013.19
2016-11-16T03:13:14.784Z,1013.16
2016-11-16T03:14:14.804Z,1013.15
2016-11-16T03:15:14.823Z,1013.18
2016-11-16T03:16:14.842Z,1013.19
2016-11-16T03:17:14.863Z,1013.16
2016-11-16T03:18:14.882Z,1013.15
2016-11-16T03:19:14.902Z,1013.17
2016-11-16T03:20:14.921Z,1013.15
2016-11-16T03:21:14.941Z,1013.14
2016-11-16T03:22:14.962Z,1013.12
2016-11-16T03:23:14.980Z,1013.13
2016-11-16T03:24:15.001Z,1013.12
2016-11-16T03:25:15.021Z,1013.12
2016-11-16T03:27:15.060Z,1013.1
2016-11-16T03:28:15.080Z,1013.12
2016-11-16T03:29:15.099Z,1013.17
2016-11-16T03:30:15.121Z,1013.16
2016-11-16T03:31:15.140Z,1013.17
2016-11-16T03:32:15.160Z,1013.2
2016-11-16T03:33:15.180Z,1013.17
2016-11-16T03:34:15.200Z,1013.23
2016-11-16T03:35:15.220Z,1013.2
2016-11-16T03:36:15.239Z,1013.27
2016-11-16T03:37:15.259Z,1013.23
2016-11-16T03:38:15.280Z,1013.26
2016-11-16T03:39:15.299Z,1013.18
2016-11-16T03:40:15.319Z,1013.23
2016-11-16T03:41:15.338Z,1013.25
2016-11-16T03:43:15.579Z,1013.22
2016-11-16T03:44:15.398Z,1013.26
2016-11-16T03:45:15.418Z,1013.29
2016-11-16T03:46:15.439Z,1013.23
2016-11-16T03:47:15.457Z,1013.29
2016-11-16T03:48:15.479Z,1013.27
2016-11-16T03:49:15.497Z,1013.28
2016-11-16T03:50:15.519Z,1013.22
2016-11-16T03:51:15.537Z,1013.24
2016-11-16T03:52:15.557Z,1013.3
2016-11-16T03:53:15.577Z,1013.3
2016-11-16T03:54:15.598Z,1013.32
2016-11-16T03:55:15.617Z,1013.29
2016-11-16T03:56:15.636Z,1013.32
2016-11-16T03:57:15.657Z,1013.3
2016-11-16T03:59:15.696Z,1013.25
2016-11-16T04:00:15.717Z,1013.24
2016-11-16T04:01:15.737Z,1013.22
2016-11-16T04:02:15.767Z,1013.28
2016-11-16T04:03:15.777Z,1013.24
2016-11-16T04:04:15.797Z,1013.23
2016-11-16T04:05:15.817Z,1013.26
2016-11-16T04:06:15.837Z,1013.31
2016-11-16T04:07:15.857Z,1013.31
2016-11-16T04:08:15.885Z,1013.32
2016-11-16T04:09:15.895Z,1013.36
2016-11-16T04:10:15.917Z,1013.32
2016-11-16T04:11:15.936Z,1013.39
2016-11-16T04:12:15.956Z,1013.34
2016-11-16T04:13:15.975Z,1013.29
2016-11-16T04:15:16.015Z,1013.31
2016-11-16T04:16:16.037Z,1013.29
2016-11-16T04:17:16.056Z,1013.27
2016-11-16T04:18:16.076Z,1013.37
2016-11-16T04:19:16.096Z,1013.33
2016-11-16T04:20:16.115Z,1013.34
2016-11-16T04:21:16.135Z,1013.32
2016-11-16T04:22:16.155Z,1013.35
2016-11-16T04:23:16.176Z,1013.36
2016-11-16T04:24:16.194Z,1013.35
2016-11-16T04:25:16.215Z,1013.37
2016-11-16T04:26:16.235Z,1013.38
2016-11-16T04:27:16.256Z,1013.35
2016-11-16T04:28:16.276Z,1013.37
2016-11-16T04:30:16.317Z,1013.4
2016-11-16T04:31:16.335Z,1013.4
2016-11-16T04:32:16.355Z,1013.42
2016-11-16T04:33:16.376Z,1013.36
2016-11-16T04:34:16.395Z,1013.41
2016-11-16T04:35:16.415Z,1013.44
2016-11-16T04:36:16.436Z,1013.4
2016-11-16T04:37:16.456Z,1013.35
2016-11-16T04:38:16.476Z,1013.34
2016-11-16T04:39:16.495Z,1013.41
2016-11-16T04:40:16.515Z,1013.31
2016-11-16T04:41:16.535Z,1013.31
2016-11-16T04:42:16.555Z,1013.31
2016-11-16T04:43:16.574Z,1013.3
2016-11-16T04:44:16.596Z,1013.3
2016-11-16T04:45:16.615Z,1013.27
2016-11-16T04:46:16.634Z,1013.29
2016-11-16T04:47:16.655Z,1013.3
2016-11-16T04:48:16.675Z,1013.33
2016-11-16T04:49:16.694Z,1013.29
2016-11-16T04:50:16.715Z,1013.26
2016-11-16T04:51:16.734Z,1013.26
2016-11-16T04:52:16.755Z,1013.23
2016-11-16T04:53:16.774Z,1013.25
2016-11-16T04:54:16.795Z,1013.25
2016-11-16T04:55:16.815Z,1013.24
2016-11-16T04:56:16.835Z,1013.2
2016-11-16T04:57:16.854Z,1013.23
2016-11-16T04:58:16.873Z,1013.24
2016-11-16T04:59:16.895Z,1013.25
2016-11-16T05:00:16.914Z,1013.16
2016-11-16T05:02:16.955Z,1013.14
2016-11-16T05:03:16.974Z,1013.2
2016-11-16T05:04:16.994Z,1013.15
2016-11-16T05:05:17.013Z,1013.17
2016-11-16T05:06:17.034Z,1013.16
2016-11-16T05:07:17.054Z,1013.17
2016-11-16T05:08:17.074Z,1013.18
2016-11-16T05:09:17.093Z,1013.17
2016-11-16T05:10:17.113Z,1013.14
2016-11-16T05:11:17.134Z,1013.15
2016-11-16T05:12:17.153Z,1013.15
2016-11-16T05:13:17.174Z,1013.12
2016-11-16T05:14:17.193Z,1013.1
2016-11-16T05:15:17.213Z,1013.07
2016-11-16T05:16:17.233Z,1013.06
2016-11-16T05:18:17.274Z,1013.02
2016-11-16T05:19:17.297Z,1013.03
2016-11-16T05:20:17.313Z,1013.03
2016-11-16T05:21:17.333Z,1013.05
2016-11-16T05:22:17.353Z,1013.07
2016-11-16T05:23:17.373Z,1013.05
2016-11-16T05:24:17.392Z,1013.1
2016-11-16T05:25:17.413Z,1013.1
2016-11-16T05:26:17.433Z,1013.1
2016-11-16T05:27:17.452Z,1013.1
2016-11-16T05:28:17.473Z,1013.08
2016-11-16T05:29:17.494Z,1013.08
2016-11-16T05:30:17.512Z,1013.05
2016-11-16T05:31:17.532Z,1013.02
2016-11-16T05:32:17.554Z,1013.01
2016-11-16T05:34:17.593Z,1013.02
2016-11-16T05:35:17.613Z,1013.01
2016-11-16T05:36:17.634Z,1013.04
2016-11-16T05:37:17.653Z,1013.02
2016-11-16T05:38:17.672Z,1013
2016-11-16T05:39:17.692Z,1013
2016-11-16T05:40:17.713Z,1013
2016-11-16T05:41:17.733Z,1012.98
2016-11-16T05:42:17.753Z,1013.01
2016-11-16T05:43:17.773Z,1013.03
2016-11-16T05:44:17.792Z,1013.02
2016-11-16T05:45:17.812Z,1013
2016-11-16T05:46:17.833Z,1013.03
2016-11-16T05:47:17.853Z,1012.98
2016-11-16T05:48:17.871Z,1013
2016-11-16T05:50:17.911Z,1013.02
2016-11-16T05:51:17.932Z,1013.06
2016-11-16T05:52:17.951Z,1013.03
2016-11-16T05:53:17.972Z,1013.03
2016-11-16T05:54:17.992Z,1013.03
2016-11-16T05:55:18.010Z,1013.04
2016-11-16T05:56:18.032Z,1013.07
2016-11-16T05:57:18.051Z,1013.12
2016-11-16T05:58:18.071Z,1013.1
2016-11-16T05:59:18.090Z,1013.1
2016-11-16T06:00:18.110Z,1013.16
2016-11-16T06:01:18.131Z,1013.14
2016-11-16T06:02:18.152Z,1013.12
2016-11-16T06:03:18.172Z,1013.12
2016-11-16T06:05:18.212Z,1013.11
2016-11-16T06:06:18.231Z,1013.11
2016-11-16T06:07:18.252Z,1013.07
2016-11-16T06:08:18.272Z,1013.09
2016-11-16T06:09:18.291Z,1013.06
2016-11-16T06:10:18.311Z,1013.09
2016-11-16T06:11:18.330Z,1013.07
2016-11-16T06:12:18.351Z,1013.04
2016-11-16T06:13:18.370Z,1013.05
2016-11-16T06:14:18.390Z,1013.03
2016-11-16T06:15:18.410Z,1013.04
2016-11-16T06:16:18.431Z,1013.05
2016-11-16T06:17:18.451Z,1013.09
2016-11-16T06:18:18.470Z,1013.09
2016-11-16T06:19:18.491Z,1013.07
2016-11-16T06:20:18.511Z,1013.07
2016-11-16T06:21:18.529Z,1013.06
2016-11-16T06:22:18.550Z,1013.04
2016-11-16T06:23:18.571Z,1013.06
2016-11-16T06:24:18.589Z,1013.05
2016-11-16T06:25:18.611Z,1013.06
2016-11-16T06:26:18.629Z,1013.09
2016-11-16T06:27:18.651Z,1013.04
2016-11-16T06:28:18.669Z,1013.09
2016-11-16T06:29:18.689Z,1013.1
2016-11-16T06:30:18.726Z,1013.12
2016-11-16T06:31:18.730Z,1013.12
2016-11-16T06:32:18.749Z,1013.08
2016-11-16T06:33:18.769Z,1013.11
2016-11-16T06:34:18.789Z,1013.06
2016-11-16T06:35:18.810Z,1013.1
2016-11-16T06:37:18.850Z,1013.03
2016-11-16T06:38:18.869Z,1013.05
2016-11-16T06:39:18.890Z,1013.08
2016-11-16T06:40:18.909Z,1013.05
2016-11-16T06:41:18.930Z,1013.05
2016-11-16T06:42:18.950Z,1013.05
2016-11-16T06:43:18.968Z,1013.06
2016-11-16T06:44:18.989Z,1013.07
2016-11-16T06:45:19.010Z,1013.02
2016-11-16T06:46:19.028Z,1013.03
2016-11-16T06:47:19.050Z,1013.01
2016-11-16T06:48:19.069Z,1013.06
2016-11-16T06:49:19.090Z,1013.02
2016-11-16T06:50:19.110Z,1012.99
2016-11-16T06:51:19.129Z,1013
2016-11-16T06:53:19.169Z,1012.93
2016-11-16T06:54:19.188Z,1012.9
2016-11-16T06:55:19.209Z,1012.95
2016-11-16T06:56:19.229Z,1012.96
2016-11-16T06:57:19.249Z,1012.94
2016-11-16T06:58:19.270Z,1012.92
2016-11-16T06:59:19.290Z,1012.95
2016-11-16T07:00:19.309Z,1012.92
2016-11-16T07:01:19.328Z,1012.91
2016-11-16T07:02:19.349Z,1012.86
2016-11-16T07:03:19.370Z,1012.9
2016-11-16T07:04:19.389Z,1012.84
2016-11-16T07:05:19.409Z,1012.86
2016-11-16T07:06:19.429Z,1012.85
2016-11-16T07:07:19.449Z,1012.83
2016-11-16T07:09:19.490Z,1012.81
2016-11-16T07:10:19.509Z,1012.79
2016-11-16T07:11:19.530Z,1012.77
2016-11-16T07:12:19.549Z,1012.78
2016-11-16T07:13:19.570Z,1012.74
2016-11-16T07:14:19.590Z,1012.75
2016-11-16T07:15:19.610Z,1012.69
2016-11-16T07:16:19.631Z,1012.71
2016-11-16T07:17:19.651Z,1012.7
2016-11-16T07:18:19.671Z,1012.7
2016-11-16T07:19:19.691Z,1012.71
2016-11-16T07:20:19.710Z,1012.71
2016-11-16T07:21:19.732Z,1012.74
2016-11-16T07:22:19.753Z,1012.71
2016-11-16T07:23:19.771Z,1012.73
2016-11-16T07:25:19.812Z,1012.69
2016-11-16T07:26:19.834Z,1012.69
2016-11-16T07:27:19.853Z,1012.68
2016-11-16T07:28:19.873Z,1012.7
2016-11-16T07:29:19.893Z,1012.71
2016-11-16T07:30:19.914Z,1012.68
2016-11-16T07:31:19.934Z,1012.68
2016-11-16T07:32:19.954Z,1012.63
2016-11-16T07:33:19.975Z,1012.64
2016-11-16T07:34:19.993Z,1012.6
2016-11-16T07:35:20.015Z,1012.54
2016-11-16T07:36:20.035Z,1012.55
2016-11-16T07:37:20.057Z,1012.54
2016-11-16T07:38:20.078Z,1012.54
2016-11-16T07:40:20.117Z,1012.54
2016-11-16T07:41:20.137Z,1012.54
2016-11-16T07:42:20.157Z,1012.48
2016-11-16T07:43:20.186Z,1012.5
2016-11-16T07:44:20.199Z,1012.52
2016-11-16T07:45:20.223Z,1012.51
2016-11-16T07:46:20.239Z,1012.51
2016-11-16T07:47:20.260Z,1012.5
2016-11-16T07:48:20.278Z,1012.5
2016-11-16T07:49:20.299Z,1012.51
2016-11-16T07:50:20.321Z,1012.49
2016-11-16T07:51:20.340Z,1012.45
2016-11-16T07:52:20.361Z,1012.46
2016-11-16T07:53:20.381Z,1012.42
2016-11-16T07:54:20.401Z,1012.44
2016-11-16T07:55:20.422Z,1012.43
2016-11-16T07:56:20.441Z,1012.41
2016-11-16T07:57:20.462Z,1012.32
2016-11-16T07:58:20.484Z,1012.31
2016-11-16T07:59:20.503Z,1012.24
2016-11-16T08:00:20.524Z,1012.26
2016-11-16T08:01:20.545Z,1012.27
2016-11-16T08:02:20.564Z,1012.24
2016-11-16T08:03:20.585Z,1012.2
2016-11-16T08:04:20.605Z,1012.19
2016-11-16T08:05:20.624Z,1012.16
2016-11-16T08:06:20.645Z,1012.16
2016-11-16T08:07:20.665Z,1012.15
2016-11-16T08:08:20.685Z,1012.12
2016-11-16T08:09:20.715Z,1012.11
2016-11-16T08:10:20.726Z,1012.13
2016-11-16T08:12:20.767Z,1012.09
2016-11-16T08:13:20.789Z,1012.06
2016-11-16T08:14:20.807Z,1012.02
2016-11-16T08:15:20.829Z,1012.07
2016-11-16T08:16:20.850Z,1012.05
2016-11-16T08:17:20.869Z,1012.03
2016-11-16T08:18:20.892Z,1012.02
2016-11-16T08:19:20.911Z,1012.02
2016-11-16T08:20:20.933Z,1011.98
2016-11-16T08:21:20.950Z,1011.93
2016-11-16T08:22:20.971Z,1011.88
2016-11-16T08:23:20.993Z,1011.87
2016-11-16T08:24:21.012Z,1011.86
2016-11-16T08:25:21.032Z,1011.87
2016-11-16T08:26:21.053Z,1011.81
2016-11-16T08:28:21.096Z,1011.76
2016-11-16T08:29:21.114Z,1011.77
2016-11-16T08:30:21.135Z,1011.77
2016-11-16T08:31:21.156Z,1011.74
2016-11-16T08:32:21.175Z,1011.79
2016-11-16T08:33:21.196Z,1011.76
2016-11-16T08:34:21.218Z,1011.73
2016-11-16T08:35:21.238Z,1011.69
2016-11-16T08:36:21.258Z,1011.68
2016-11-16T08:37:21.280Z,1011.74
2016-11-16T08:38:21.299Z,1011.75
2016-11-16T08:39:21.320Z,1011.75
2016-11-16T08:40:21.340Z,1011.81
2016-11-16T08:41:21.362Z,1011.77
2016-11-16T08:42:21.382Z,1011.81
2016-11-16T08:44:21.423Z,1011.7
2016-11-16T08:45:21.444Z,1011.68
2016-11-16T08:46:21.465Z,1011.65
2016-11-16T08:47:21.485Z,1011.63
2016-11-16T08:48:21.506Z,1011.66
2016-11-16T08:49:21.526Z,1011.59
2016-11-16T08:50:21.547Z,1011.64
2016-11-16T08:51:21.567Z,1011.69
2016-11-16T08:52:21.589Z,1011.66
2016-11-16T08:53:21.609Z,1011.67
2016-11-16T08:54:21.629Z,1011.66
2016-11-16T08:55:21.652Z,1011.68
2016-11-16T08:56:21.670Z,1011.63
2016-11-16T08:57:21.692Z,1011.61
2016-11-16T08:58:21.711Z,1011.59
2016-11-16T09:00:21.753Z,1011.54
2016-11-16T09:01:21.774Z,1011.59
2016-11-16T09:02:21.793Z,1011.6
2016-11-16T09:03:21.814Z,1011.57
2016-11-16T09:04:21.835Z,1011.59
2016-11-16T09:05:21.856Z,1011.62
2016-11-16T09:06:21.876Z,1011.63
2016-11-16T09:07:21.897Z,1011.68
2016-11-16T09:08:21.918Z,1011.7
2016-11-16T09:09:21.938Z,1011.7
2016-11-16T09:10:21.958Z,1011.67
2016-11-16T09:11:21.979Z,1011.62
2016-11-16T09:12:22.001Z,1011.57
2016-11-16T09:13:22.021Z,1011.52
2016-11-16T09:15:22.063Z,1011.46
2016-11-16T09:16:22.083Z,1011.46
2016-11-16T09:17:22.104Z,1011.47
2016-11-16T09:18:22.124Z,1011.48
2016-11-16T09:19:22.146Z,1011.47
2016-11-16T09:20:22.166Z,1011.45
2016-11-16T09:21:22.187Z,1011.46
2016-11-16T09:22:22.207Z,1011.5
2016-11-16T09:23:22.228Z,1011.5
2016-11-16T09:24:22.248Z,1011.46
2016-11-16T09:25:22.269Z,1011.45
2016-11-16T09:26:22.290Z,1011.45
2016-11-16T09:27:22.311Z,1011.45
2016-11-16T09:28:22.331Z,1011.42
2016-11-16T09:29:22.354Z,1011.44
2016-11-16T09:30:22.375Z,1011.43
2016-11-16T09:31:22.394Z,1011.4
2016-11-16T09:32:22.415Z,1011.36
2016-11-16T09:33:22.437Z,1011.36
2016-11-16T09:34:22.457Z,1011.4
2016-11-16T09:35:22.478Z,1011.36
2016-11-16T09:36:22.499Z,1011.35
2016-11-16T09:37:22.520Z,1011.31
2016-11-16T09:38:22.540Z,1011.34
2016-11-16T09:39:22.560Z,1011.36
2016-11-16T09:40:22.582Z,1011.32
2016-11-16T09:41:22.602Z,1011.3
2016-11-16T09:42:22.624Z,1011.27
2016-11-16T09:43:22.644Z,1011.26
2016-11-16T09:44:22.666Z,1011.26
2016-11-16T09:45:22.686Z,1011.23
2016-11-16T09:47:22.728Z,1011.16
2016-11-16T09:48:22.749Z,1011.15
2016-11-16T09:49:22.769Z,1011.12
2016-11-16T09:50:22.789Z,1011.09
2016-11-16T09:51:22.811Z,1011.05
2016-11-16T09:52:22.831Z,1011.05
2016-11-16T09:53:22.852Z,1011.03
2016-11-16T09:54:22.873Z,1011.02
2016-11-16T09:55:22.893Z,1011
2016-11-16T09:56:22.913Z,1011.03
2016-11-16T09:57:22.934Z,1011
2016-11-16T09:58:22.956Z,1010.99
2016-11-16T09:59:22.977Z,1010.96
2016-11-16T10:00:22.997Z,1010.98
2016-11-16T10:01:23.018Z,1010.99
2016-11-16T10:03:23.059Z,1010.91
2016-11-16T10:04:23.079Z,1010.94
2016-11-16T10:05:23.100Z,1010.95
2016-11-16T10:06:23.121Z,1010.88
2016-11-16T10:07:23.141Z,1010.87
2016-11-16T10:08:23.162Z,1010.82
2016-11-16T10:09:23.184Z,1010.83
2016-11-16T10:10:23.205Z,1010.81
2016-11-16T10:11:23.225Z,1010.8
2016-11-16T10:12:23.245Z,1010.8
2016-11-16T10:13:23.268Z,1010.79
2016-11-16T10:14:23.287Z,1010.77
2016-11-16T10:15:23.307Z,1010.78
2016-11-16T10:16:23.328Z,1010.74
2016-11-16T10:17:23.350Z,1010.75
2016-11-16T10:19:23.391Z,1010.72
2016-11-16T10:20:23.411Z,1010.71
2016-11-16T10:21:23.433Z,1010.74
2016-11-16T10:22:23.453Z,1010.73
2016-11-16T10:23:23.473Z,1010.75
2016-11-16T10:24:23.496Z,1010.7
2016-11-16T10:25:23.516Z,1010.66
2016-11-16T10:26:23.536Z,1010.6
2016-11-16T10:27:23.557Z,1010.63
2016-11-16T10:28:23.579Z,1010.63
2016-11-16T10:29:23.598Z,1010.61
2016-11-16T10:30:23.620Z,1010.6
2016-11-16T10:31:23.640Z,1010.55
2016-11-16T10:32:23.661Z,1010.49
2016-11-16T10:33:23.681Z,1010.46
2016-11-16T10:35:23.725Z,1010.44
2016-11-16T10:36:23.746Z,1010.41
2016-11-16T10:37:23.766Z,1010.37
2016-11-16T10:38:23.787Z,1010.34
2016-11-16T10:39:23.808Z,1010.31
2016-11-16T10:40:23.829Z,1010.3
2016-11-16T10:41:23.849Z,1010.27
2016-11-16T10:42:23.877Z,1010.28
2016-11-16T10:43:23.891Z,1010.25
2016-11-16T10:44:23.913Z,1010.21
2016-11-16T10:45:23.934Z,1010.19
2016-11-16T10:46:23.955Z,1010.17
2016-11-16T10:47:23.976Z,1010.23
2016-11-16T10:48:23.996Z,1010.18
2016-11-16T10:50:24.040Z,1010.12
2016-11-16T10:51:24.059Z,1010.09
2016-11-16T10:52:24.081Z,1010.04
2016-11-16T10:53:24.102Z,1010
2016-11-16T10:54:24.124Z,1009.92
2016-11-16T10:55:24.148Z,1009.93
2016-11-16T10:56:24.165Z,1009.9
2016-11-16T10:57:24.188Z,1009.87
2016-11-16T10:58:24.207Z,1009.87
2016-11-16T10:59:24.230Z,1009.83
2016-11-16T11:00:24.251Z,1009.79
2016-11-16T11:01:24.271Z,1009.77
2016-11-16T11:02:24.292Z,1009.77
2016-11-16T11:03:24.314Z,1009.75
2016-11-16T11:04:24.336Z,1009.7
2016-11-16T11:05:24.357Z,1009.74
2016-11-16T11:06:24.378Z,1009.71
2016-11-16T11:07:24.400Z,1009.62
2016-11-16T11:08:24.421Z,1009.54
2016-11-16T11:09:24.442Z,1009.53
2016-11-16T11:10:24.465Z,1009.46
2016-11-16T11:11:24.485Z,1009.41
2016-11-16T11:12:24.507Z,1009.37
2016-11-16T11:13:24.529Z,1009.38
2016-11-16T11:14:24.550Z,1009.39
2016-11-16T11:15:24.573Z,1009.42
2016-11-16T11:16:24.595Z,1009.46
2016-11-16T11:17:24.614Z,1009.5
2016-11-16T11:18:24.636Z,1009.52
2016-11-16T11:19:24.659Z,1009.55
2016-11-16T11:20:24.679Z,1009.61
2016-11-16T11:22:24.723Z,1009.68
2016-11-16T11:23:24.744Z,1009.69
2016-11-16T11:24:24.766Z,1009.69
2016-11-16T11:25:24.837Z,1009.56
2016-11-16T11:26:24.809Z,1009.6
2016-11-16T11:27:24.830Z,1009.59
2016-11-16T11:28:24.851Z,1009.53
2016-11-16T11:29:24.873Z,1009.56
2016-11-16T11:30:24.896Z,1009.6
2016-11-16T11:31:24.916Z,1009.58
2016-11-16T11:32:24.938Z,1009.49
2016-11-16T11:33:24.959Z,1009.49
2016-11-16T11:34:24.980Z,1009.5
2016-11-16T11:35:25.001Z,1009.48
2016-11-16T11:36:25.024Z,1009.49
2016-11-16T11:38:25.067Z,1009.47
2016-11-16T11:39:25.086Z,1009.45
2016-11-16T11:40:25.111Z,1009.33
2016-11-16T11:41:25.131Z,1009.3
2016-11-16T11:42:25.452Z,1009.26
2016-11-16T11:43:25.172Z,1009.22
2016-11-16T11:44:25.195Z,1009.24
2016-11-16T11:45:25.217Z,1009.22
2016-11-16T11:46:25.236Z,1009.28
2016-11-16T11:47:25.259Z,1009.2
2016-11-16T11:48:25.280Z,1009.17
2016-11-16T11:49:25.302Z,1009.19
2016-11-16T11:50:25.323Z,1009.16
2016-11-16T11:51:25.344Z,1009.19
2016-11-16T11:52:25.365Z,1009.15
2016-11-16T11:54:25.408Z,1009.17
2016-11-16T11:55:25.430Z,1009.13
2016-11-16T11:56:25.453Z,1009.08
2016-11-16T11:57:25.472Z,1009.06
2016-11-16T11:58:25.493Z,1009.06
2016-11-16T11:59:25.515Z,1009.04
2016-11-16T12:00:25.536Z,1009.03
2016-11-16T12:01:25.558Z,1009.01
2016-11-16T12:02:25.586Z,1009.03
2016-11-16T12:03:25.600Z,1008.95
2016-11-16T12:04:25.621Z,1009.01
2016-11-16T12:05:25.642Z,1008.96
2016-11-16T12:06:25.665Z,1008.9
2016-11-16T12:07:25.686Z,1008.91
2016-11-16T12:08:25.706Z,1008.86
2016-11-16T12:10:25.749Z,1008.89
2016-11-16T12:11:25.771Z,1008.87
2016-11-16T12:12:25.792Z,1008.87
2016-11-16T12:13:25.814Z,1008.82
2016-11-16T12:14:25.840Z,1008.79
2016-11-16T12:15:25.856Z,1008.76
2016-11-16T12:16:25.876Z,1008.8
2016-11-16T12:17:25.899Z,1008.74
2016-11-16T12:18:25.919Z,1008.75
2016-11-16T12:19:25.941Z,1008.72
2016-11-16T12:20:25.961Z,1008.7
2016-11-16T12:21:25.984Z,1008.7
2016-11-16T12:22:26.004Z,1008.73
2016-11-16T12:23:26.026Z,1008.76
2016-11-16T12:25:26.069Z,1008.61
2016-11-16T12:26:26.089Z,1008.54
2016-11-16T12:27:26.111Z,1008.47
2016-11-16T12:28:26.133Z,1008.5
2016-11-16T12:29:26.153Z,1008.45
2016-11-16T12:30:26.175Z,1008.4
2016-11-16T12:31:26.195Z,1008.37
2016-11-16T12:32:26.218Z,1008.3
2016-11-16T12:33:26.237Z,1008.34
2016-11-16T12:34:26.260Z,1008.29
2016-11-16T12:35:26.281Z,1008.25
2016-11-16T12:36:26.303Z,1008.26
2016-11-16T12:37:26.322Z,1008.27
2016-11-16T12:38:26.345Z,1008.24
2016-11-16T12:39:26.367Z,1008.18
2016-11-16T12:40:26.386Z,1008.1
2016-11-16T12:41:26.407Z,1008.08
2016-11-16T12:42:26.430Z,1008.06
2016-11-16T12:43:26.451Z,1008.07
2016-11-16T12:44:26.470Z,1008.05
2016-11-16T12:45:26.493Z,1007.97
2016-11-16T12:46:26.514Z,1007.9
2016-11-16T12:47:26.535Z,1007.86
2016-11-16T12:48:26.555Z,1007.81
2016-11-16T12:49:26.577Z,1007.79